sensor_id;sensor_type;location;lat;lon;timestamp;P1;durP1;ratioP1;P2;durP2;ratioP2
65162;SDS011;51751;55.714;37.436;2023-02-21T00:01:56;27.00;;;12.13;;
65162;SDS011;51751;55.714;37.436;2023-02-21T00:04:41;32.10;;;12.80;;
65162;SDS011;51751;55.714;37.436;2023-02-21T00:07:25;26.55;;;12.52;;
65162;SDS011;51751;55.714;37.436;2023-02-21T00:10:11;29.13;;;11.45;;
65162;SDS011;51751;55.714;37.436;2023-02-21T00:12:56;30.15;;;12.55;;
65162;SDS011;51751;55.714;37.436;2023-02-21T00:15:41;30.30;;;13.32;;
65162;SDS011;51751;55.714;37.436;2023-02-21T00:18:25;32.22;;;12.80;;
65162;SDS011;51751;55.714;37.436;2023-02-21T00:21:10;31.23;;;14.20;;
65162;SDS011;51751;55.714;37.436;2023-02-21T00:24:14;36.58;;;13.30;;
65162;SDS011;51751;55.714;37.436;2023-02-21T00:27:00;32.47;;;13.00;;
65162;SDS011;51751;55.714;37.436;2023-02-21T00:29:46;31.10;;;11.73;;
65162;SDS011;51751;55.714;37.436;2023-02-21T00:32:33;29.05;;;12.48;;
65162;SDS011;51751;55.714;37.436;2023-02-21T00:35:36;26.55;;;10.77;;
65162;SDS011;51751;55.714;37.436;2023-02-21T00:38:21;28.55;;;12.77;;
65162;SDS011;51751;55.714;37.436;2023-02-21T00:41:05;30.40;;;12.73;;
65162;SDS011;51751;55.714;37.436;2023-02-21T00:43:49;26.13;;;11.90;;
65162;SDS011;51751;55.714;37.436;2023-02-21T00:46:33;29.58;;;12.73;;
65162;SDS011;51751;55.714;37.436;2023-02-21T00:49:18;30.25;;;12.32;;
65162;SDS011;51751;55.714;37.436;2023-02-21T00:52:02;31.63;;;12.75;;
65162;SDS011;51751;55.714;37.436;2023-02-21T00:54:46;28.13;;;12.02;;
65162;SDS011;51751;55.714;37.436;2023-02-21T00:57:31;26.50;;;10.88;;
65162;SDS011;51751;55.714;37.436;2023-02-21T01:00:16;29.10;;;12.75;;
65162;SDS011;51751;55.714;37.436;2023-02-21T01:03:08;20.83;;;9.23;;
65162;SDS011;51751;55.714;37.436;2023-02-21T01:05:55;26.17;;;10.63;;
65162;SDS011;51751;55.714;37.436;2023-02-21T01:08:43;31.90;;;13.88;;
65162;SDS011;51751;55.714;37.436;2023-02-21T01:11:28;32.65;;;13.38;;
65162;SDS011;51751;55.714;37.436;2023-02-21T01:14:12;26.52;;;12.23;;
65162;SDS011;51751;55.714;37.436;2023-02-21T01:16:58;34.75;;;13.13;;
65162;SDS011;51751;55.714;37.436;2023-02-21T01:19:43;22.42;;;10.18;;
65162;SDS011;51751;55.714;37.436;2023-02-21T01:22:29;26.02;;;11.52;;
65162;SDS011;51751;55.714;37.436;2023-02-21T01:25:14;32.15;;;13.88;;
65162;SDS011;51751;55.714;37.436;2023-02-21T01:27:58;23.63;;;10.90;;
65162;SDS011;51751;55.714;37.436;2023-02-21T01:30:43;29.30;;;11.73;;
65162;SDS011;51751;55.714;37.436;2023-02-21T01:33:33;28.70;;;13.07;;
65162;SDS011;51751;55.714;37.436;2023-02-21T01:36:27;34.03;;;13.38;;
65162;SDS011;51751;55.714;37.436;2023-02-21T01:39:12;28.17;;;12.65;;
65162;SDS011;51751;55.714;37.436;2023-02-21T01:41:58;27.58;;;11.77;;
65162;SDS011;51751;55.714;37.436;2023-02-21T01:44:43;30.65;;;12.77;;
65162;SDS011;51751;55.714;37.436;2023-02-21T01:47:31;25.00;;;10.63;;
65162;SDS011;51751;55.714;37.436;2023-02-21T01:50:24;37.10;;;12.85;;
65162;SDS011;51751;55.714;37.436;2023-02-21T01:53:19;34.13;;;13.90;;
65162;SDS011;51751;55.714;37.436;2023-02-21T01:56:06;30.88;;;12.95;;
65162;SDS011;51751;55.714;37.436;2023-02-21T01:58:52;27.15;;;12.32;;
65162;SDS011;51751;55.714;37.436;2023-02-21T02:05:01;25.52;;;11.48;;
65162;SDS011;51751;55.714;37.436;2023-02-21T02:07:48;34.13;;;12.68;;
65162;SDS011;51751;55.714;37.436;2023-02-21T02:10:33;25.38;;;11.70;;
65162;SDS011;51751;55.714;37.436;2023-02-21T02:16:40;28.23;;;12.45;;
65162;SDS011;51751;55.714;37.436;2023-02-21T02:36:50;33.05;;;14.50;;
65162;SDS011;51751;55.714;37.436;2023-02-21T02:39:37;30.75;;;13.50;;
65162;SDS011;51751;55.714;37.436;2023-02-21T02:44:57;36.65;;;15.77;;
65162;SDS011;51751;55.714;37.436;2023-02-21T02:47:30;35.22;;;15.20;;
65162;SDS011;51751;55.714;37.436;2023-02-21T02:50:02;48.42;;;14.05;;
65162;SDS011;51751;55.714;37.436;2023-02-21T02:52:30;34.55;;;14.45;;
65162;SDS011;51751;55.714;37.436;2023-02-21T02:55:01;34.85;;;14.27;;
65162;SDS011;51751;55.714;37.436;2023-02-21T02:57:29;30.85;;;13.45;;
65162;SDS011;51751;55.714;37.436;2023-02-21T03:00:06;32.17;;;13.50;;
65162;SDS011;51751;55.714;37.436;2023-02-21T03:05:12;30.13;;;13.10;;
65162;SDS011;51751;55.714;37.436;2023-02-21T03:13:23;26.38;;;11.07;;
65162;SDS011;51751;55.714;37.436;2023-02-21T03:21:48;28.17;;;12.65;;
65162;SDS011;51751;55.714;37.436;2023-02-21T03:24:16;27.42;;;11.85;;
65162;SDS011;51751;55.714;37.436;2023-02-21T03:26:46;28.83;;;11.57;;
65162;SDS011;51751;55.714;37.436;2023-02-21T03:29:42;35.63;;;13.40;;
65162;SDS011;51751;55.714;37.436;2023-02-21T03:32:12;29.20;;;12.52;;
65162;SDS011;51751;55.714;37.436;2023-02-21T03:34:46;26.45;;;10.80;;
65162;SDS011;51751;55.714;37.436;2023-02-21T03:37:20;28.95;;;12.20;;
65162;SDS011;51751;55.714;37.436;2023-02-21T03:39:54;31.38;;;12.82;;
65162;SDS011;51751;55.714;37.436;2023-02-21T03:42:20;31.42;;;13.65;;
65162;SDS011;51751;55.714;37.436;2023-02-21T03:44:46;26.38;;;10.95;;
65162;SDS011;51751;55.714;37.436;2023-02-21T03:47:13;29.77;;;12.30;;
65162;SDS011;51751;55.714;37.436;2023-02-21T03:49:42;28.80;;;13.30;;
65162;SDS011;51751;55.714;37.436;2023-02-21T03:52:12;29.52;;;13.20;;
65162;SDS011;51751;55.714;37.436;2023-02-21T03:54:39;23.92;;;11.55;;
65162;SDS011;51751;55.714;37.436;2023-02-21T03:57:06;28.52;;;11.52;;
65162;SDS011;51751;55.714;37.436;2023-02-21T03:59:38;29.55;;;12.60;;
65162;SDS011;51751;55.714;37.436;2023-02-21T04:02:04;31.20;;;13.85;;
65162;SDS011;51751;55.714;37.436;2023-02-21T04:04:32;33.92;;;13.20;;
65162;SDS011;51751;55.714;37.436;2023-02-21T04:07:10;27.92;;;11.15;;
65162;SDS011;51751;55.714;37.436;2023-02-21T04:09:36;32.65;;;13.75;;
65162;SDS011;51751;55.714;37.436;2023-02-21T04:12:06;35.05;;;14.48;;
65162;SDS011;51751;55.714;37.436;2023-02-21T04:14:59;26.15;;;12.93;;
65162;SDS011;51751;55.714;37.436;2023-02-21T04:17:25;31.20;;;13.25;;
65162;SDS011;51751;55.714;37.436;2023-02-21T04:19:53;28.45;;;13.20;;
65162;SDS011;51751;55.714;37.436;2023-02-21T04:22:37;37.22;;;13.10;;
65162;SDS011;51751;55.714;37.436;2023-02-21T04:25:05;25.85;;;10.48;;
65162;SDS011;51751;55.714;37.436;2023-02-21T04:27:37;28.70;;;12.95;;
65162;SDS011;51751;55.714;37.436;2023-02-21T04:30:03;32.75;;;13.73;;
65162;SDS011;51751;55.714;37.436;2023-02-21T04:32:30;36.33;;;13.85;;
65162;SDS011;51751;55.714;37.436;2023-02-21T04:34:57;33.17;;;12.45;;
65162;SDS011;51751;55.714;37.436;2023-02-21T04:37:23;28.05;;;12.50;;
65162;SDS011;51751;55.714;37.436;2023-02-21T04:39:49;31.67;;;13.88;;
65162;SDS011;51751;55.714;37.436;2023-02-21T04:42:16;26.20;;;11.30;;
65162;SDS011;51751;55.714;37.436;2023-02-21T04:44:42;34.38;;;13.23;;
65162;SDS011;51751;55.714;37.436;2023-02-21T04:47:09;27.08;;;10.98;;
65162;SDS011;51751;55.714;37.436;2023-02-21T04:49:35;24.83;;;11.35;;
65162;SDS011;51751;55.714;37.436;2023-02-21T04:52:00;24.90;;;10.82;;
65162;SDS011;51751;55.714;37.436;2023-02-21T04:54:26;27.90;;;11.07;;
65162;SDS011;51751;55.714;37.436;2023-02-21T04:56:55;38.65;;;11.85;;
65162;SDS011;51751;55.714;37.436;2023-02-21T04:59:20;30.52;;;11.95;;
65162;SDS011;51751;55.714;37.436;2023-02-21T05:01:46;30.15;;;12.85;;
65162;SDS011;51751;55.714;37.436;2023-02-21T05:04:12;27.45;;;11.38;;
65162;SDS011;51751;55.714;37.436;2023-02-21T05:06:41;24.70;;;11.43;;
65162;SDS011;51751;55.714;37.436;2023-02-21T05:09:07;20.65;;;9.35;;
65162;SDS011;51751;55.714;37.436;2023-02-21T05:11:35;27.63;;;11.98;;
65162;SDS011;51751;55.714;37.436;2023-02-21T05:14:20;25.30;;;9.90;;
65162;SDS011;51751;55.714;37.436;2023-02-21T05:16:46;24.25;;;10.82;;
65162;SDS011;51751;55.714;37.436;2023-02-21T05:19:11;28.27;;;12.18;;
65162;SDS011;51751;55.714;37.436;2023-02-21T05:21:38;31.33;;;11.75;;
65162;SDS011;51751;55.714;37.436;2023-02-21T05:24:04;25.08;;;11.18;;
65162;SDS011;51751;55.714;37.436;2023-02-21T05:26:33;25.73;;;10.27;;
65162;SDS011;51751;55.714;37.436;2023-02-21T05:29:01;26.50;;;12.20;;
65162;SDS011;51751;55.714;37.436;2023-02-21T05:31:27;24.63;;;10.95;;
65162;SDS011;51751;55.714;37.436;2023-02-21T05:33:55;27.73;;;10.43;;
65162;SDS011;51751;55.714;37.436;2023-02-21T05:36:24;30.98;;;10.98;;
65162;SDS011;51751;55.714;37.436;2023-02-21T05:39:02;26.17;;;10.60;;
65162;SDS011;51751;55.714;37.436;2023-02-21T05:41:28;25.10;;;10.93;;
65162;SDS011;51751;55.714;37.436;2023-02-21T05:43:54;25.73;;;10.88;;
65162;SDS011;51751;55.714;37.436;2023-02-21T05:48:57;22.15;;;10.55;;
65162;SDS011;51751;55.714;37.436;2023-02-21T05:51:25;24.38;;;10.88;;
65162;SDS011;51751;55.714;37.436;2023-02-21T05:53:51;26.40;;;11.43;;
65162;SDS011;51751;55.714;37.436;2023-02-21T05:56:18;26.80;;;10.30;;
65162;SDS011;51751;55.714;37.436;2023-02-21T05:58:45;21.70;;;9.52;;
65162;SDS011;51751;55.714;37.436;2023-02-21T06:01:13;24.52;;;10.02;;
65162;SDS011;51751;55.714;37.436;2023-02-21T06:03:44;23.75;;;9.95;;
65162;SDS011;51751;55.714;37.436;2023-02-21T06:06:10;14.02;;;6.43;;
65162;SDS011;51751;55.714;37.436;2023-02-21T06:08:46;24.08;;;10.75;;
65162;SDS011;51751;55.714;37.436;2023-02-21T06:11:13;28.05;;;10.27;;
65162;SDS011;51751;55.714;37.436;2023-02-21T06:14:13;23.95;;;10.20;;
65162;SDS011;51751;55.714;37.436;2023-02-21T06:16:41;19.77;;;9.80;;
65162;SDS011;51751;55.714;37.436;2023-02-21T06:19:07;27.38;;;9.95;;
65162;SDS011;51751;55.714;37.436;2023-02-21T06:21:58;13.50;;;6.75;;
65162;SDS011;51751;55.714;37.436;2023-02-21T06:24:24;24.02;;;10.43;;
65162;SDS011;51751;55.714;37.436;2023-02-21T06:26:51;22.83;;;9.82;;
65162;SDS011;51751;55.714;37.436;2023-02-21T06:29:16;24.10;;;10.43;;
65162;SDS011;51751;55.714;37.436;2023-02-21T06:31:42;22.98;;;9.98;;
65162;SDS011;51751;55.714;37.436;2023-02-21T06:34:08;20.00;;;9.32;;
65162;SDS011;51751;55.714;37.436;2023-02-21T06:36:37;28.23;;;11.93;;
65162;SDS011;51751;55.714;37.436;2023-02-21T06:39:04;21.95;;;9.73;;
65162;SDS011;51751;55.714;37.436;2023-02-21T06:41:35;21.42;;;10.43;;
65162;SDS011;51751;55.714;37.436;2023-02-21T06:44:01;26.88;;;11.85;;
65162;SDS011;51751;55.714;37.436;2023-02-21T06:46:28;26.00;;;11.32;;
65162;SDS011;51751;55.714;37.436;2023-02-21T06:48:54;24.75;;;10.73;;
65162;SDS011;51751;55.714;37.436;2023-02-21T06:51:21;23.95;;;10.90;;
65162;SDS011;51751;55.714;37.436;2023-02-21T06:53:53;26.40;;;11.35;;
65162;SDS011;51751;55.714;37.436;2023-02-21T06:56:23;27.60;;;11.50;;
65162;SDS011;51751;55.714;37.436;2023-02-21T06:58:49;23.77;;;11.18;;
65162;SDS011;51751;55.714;37.436;2023-02-21T07:01:16;21.42;;;9.55;;
65162;SDS011;51751;55.714;37.436;2023-02-21T07:03:41;27.95;;;11.82;;
65162;SDS011;51751;55.714;37.436;2023-02-21T07:06:11;28.40;;;11.40;;
65162;SDS011;51751;55.714;37.436;2023-02-21T07:08:40;25.92;;;11.73;;
65162;SDS011;51751;55.714;37.436;2023-02-21T07:11:06;29.58;;;11.23;;
65162;SDS011;51751;55.714;37.436;2023-02-21T07:13:35;30.77;;;12.90;;
65162;SDS011;51751;55.714;37.436;2023-02-21T07:16:01;28.85;;;12.73;;
65162;SDS011;51751;55.714;37.436;2023-02-21T07:18:28;29.33;;;13.23;;
65162;SDS011;51751;55.714;37.436;2023-02-21T07:20:53;28.33;;;12.90;;
65162;SDS011;51751;55.714;37.436;2023-02-21T07:23:22;29.83;;;13.25;;
65162;SDS011;51751;55.714;37.436;2023-02-21T07:25:48;29.00;;;13.75;;
65162;SDS011;51751;55.714;37.436;2023-02-21T07:28:14;29.80;;;12.55;;
65162;SDS011;51751;55.714;37.436;2023-02-21T07:30:40;35.30;;;14.57;;
65162;SDS011;51751;55.714;37.436;2023-02-21T07:33:05;28.45;;;12.52;;
65162;SDS011;51751;55.714;37.436;2023-02-21T07:35:31;31.25;;;13.18;;
65162;SDS011;51751;55.714;37.436;2023-02-21T07:38:00;30.75;;;12.60;;
65162;SDS011;51751;55.714;37.436;2023-02-21T07:40:32;30.38;;;12.52;;
65162;SDS011;51751;55.714;37.436;2023-02-21T07:42:58;16.90;;;8.13;;
65162;SDS011;51751;55.714;37.436;2023-02-21T07:45:24;23.25;;;10.18;;
65162;SDS011;51751;55.714;37.436;2023-02-21T07:47:50;21.75;;;9.32;;
65162;SDS011;51751;55.714;37.436;2023-02-21T07:50:17;24.38;;;10.05;;
65162;SDS011;51751;55.714;37.436;2023-02-21T07:52:44;27.63;;;10.27;;
65162;SDS011;51751;55.714;37.436;2023-02-21T07:55:10;29.00;;;8.55;;
65162;SDS011;51751;55.714;37.436;2023-02-21T07:57:38;24.42;;;10.25;;
65162;SDS011;51751;55.714;37.436;2023-02-21T08:00:04;24.73;;;9.55;;
65162;SDS011;51751;55.714;37.436;2023-02-21T08:02:38;21.48;;;9.80;;
65162;SDS011;51751;55.714;37.436;2023-02-21T08:05:05;22.42;;;9.30;;
65162;SDS011;51751;55.714;37.436;2023-02-21T08:07:31;23.90;;;9.32;;
65162;SDS011;51751;55.714;37.436;2023-02-21T08:09:57;23.95;;;10.23;;
65162;SDS011;51751;55.714;37.436;2023-02-21T08:12:23;24.40;;;9.77;;
65162;SDS011;51751;55.714;37.436;2023-02-21T08:14:49;22.52;;;10.77;;
65162;SDS011;51751;55.714;37.436;2023-02-21T08:17:15;22.42;;;10.00;;
65162;SDS011;51751;55.714;37.436;2023-02-21T08:19:41;23.80;;;9.60;;
65162;SDS011;51751;55.714;37.436;2023-02-21T08:22:07;23.15;;;9.95;;
65162;SDS011;51751;55.714;37.436;2023-02-21T08:24:33;19.65;;;9.00;;
65162;SDS011;51751;55.714;37.436;2023-02-21T08:26:59;19.13;;;9.45;;
65162;SDS011;51751;55.714;37.436;2023-02-21T08:29:27;21.77;;;9.40;;
65162;SDS011;51751;55.714;37.436;2023-02-21T08:31:53;20.10;;;9.43;;
65162;SDS011;51751;55.714;37.436;2023-02-21T08:34:22;19.63;;;9.77;;
65162;SDS011;51751;55.714;37.436;2023-02-21T08:36:50;21.70;;;9.10;;
65162;SDS011;51751;55.714;37.436;2023-02-21T08:39:16;18.05;;;8.77;;
65162;SDS011;51751;55.714;37.436;2023-02-21T08:41:43;21.42;;;10.32;;
65162;SDS011;51751;55.714;37.436;2023-02-21T08:44:17;22.95;;;10.43;;
65162;SDS011;51751;55.714;37.436;2023-02-21T08:46:46;22.63;;;9.15;;
65162;SDS011;51751;55.714;37.436;2023-02-21T08:49:14;19.20;;;9.10;;
65162;SDS011;51751;55.714;37.436;2023-02-21T08:51:43;25.92;;;10.50;;
65162;SDS011;51751;55.714;37.436;2023-02-21T08:54:09;21.05;;;9.90;;
65162;SDS011;51751;55.714;37.436;2023-02-21T08:56:35;22.42;;;9.27;;
65162;SDS011;51751;55.714;37.436;2023-02-21T08:59:01;22.08;;;9.40;;
65162;SDS011;51751;55.714;37.436;2023-02-21T09:01:32;20.23;;;9.93;;
65162;SDS011;51751;55.714;37.436;2023-02-21T09:03:58;24.30;;;10.27;;
65162;SDS011;51751;55.714;37.436;2023-02-21T09:06:25;18.48;;;9.25;;
65162;SDS011;51751;55.714;37.436;2023-02-21T09:09:09;17.42;;;8.65;;
65162;SDS011;51751;55.714;37.436;2023-02-21T09:11:35;21.45;;;9.95;;
65162;SDS011;51751;55.714;37.436;2023-02-21T09:14:01;20.13;;;10.00;;
65162;SDS011;51751;55.714;37.436;2023-02-21T09:16:31;22.83;;;9.63;;
65162;SDS011;51751;55.714;37.436;2023-02-21T09:18:57;18.70;;;9.25;;
65162;SDS011;51751;55.714;37.436;2023-02-21T09:21:26;21.80;;;9.65;;
65162;SDS011;51751;55.714;37.436;2023-02-21T09:23:53;19.75;;;10.93;;
65162;SDS011;51751;55.714;37.436;2023-02-21T09:26:20;28.13;;;10.95;;
65162;SDS011;51751;55.714;37.436;2023-02-21T09:28:49;20.33;;;9.68;;
65162;SDS011;51751;55.714;37.436;2023-02-21T09:31:34;20.83;;;9.77;;
65162;SDS011;51751;55.714;37.436;2023-02-21T09:34:03;19.25;;;9.77;;
65162;SDS011;51751;55.714;37.436;2023-02-21T09:36:29;15.95;;;7.88;;
65162;SDS011;51751;55.714;37.436;2023-02-21T09:38:54;21.27;;;10.50;;
65162;SDS011;51751;55.714;37.436;2023-02-21T09:41:20;21.98;;;9.45;;
65162;SDS011;51751;55.714;37.436;2023-02-21T09:43:47;20.92;;;9.93;;
65162;SDS011;51751;55.714;37.436;2023-02-21T09:46:33;21.58;;;10.02;;
65162;SDS011;51751;55.714;37.436;2023-02-21T09:49:05;18.23;;;9.52;;
65162;SDS011;51751;55.714;37.436;2023-02-21T09:51:33;20.38;;;8.95;;
65162;SDS011;51751;55.714;37.436;2023-02-21T09:54:01;25.60;;;9.57;;
65162;SDS011;51751;55.714;37.436;2023-02-21T09:56:33;17.45;;;9.40;;
65162;SDS011;51751;55.714;37.436;2023-02-21T09:59:19;23.75;;;10.63;;
65162;SDS011;51751;55.714;37.436;2023-02-21T10:10:26;22.42;;;10.65;;
65162;SDS011;51751;55.714;37.436;2023-02-21T10:16:06;22.15;;;10.65;;
65162;SDS011;51751;55.714;37.436;2023-02-21T10:18:47;29.77;;;11.25;;
65162;SDS011;51751;55.714;37.436;2023-02-21T10:21:27;21.80;;;10.07;;
65162;SDS011;51751;55.714;37.436;2023-02-21T10:23:57;20.27;;;10.75;;
65162;SDS011;51751;55.714;37.436;2023-02-21T10:26:30;22.30;;;11.10;;
65162;SDS011;51751;55.714;37.436;2023-02-21T10:29:00;21.63;;;10.55;;
65162;SDS011;51751;55.714;37.436;2023-02-21T10:31:33;21.75;;;11.10;;
65162;SDS011;51751;55.714;37.436;2023-02-21T10:34:04;21.60;;;10.68;;
65162;SDS011;51751;55.714;37.436;2023-02-21T10:36:34;21.00;;;10.98;;
65162;SDS011;51751;55.714;37.436;2023-02-21T10:39:05;21.83;;;10.95;;
65162;SDS011;51751;55.714;37.436;2023-02-21T10:41:52;22.02;;;10.52;;
65162;SDS011;51751;55.714;37.436;2023-02-21T10:44:21;22.38;;;11.02;;
65162;SDS011;51751;55.714;37.436;2023-02-21T10:47:18;19.77;;;10.48;;
65162;SDS011;51751;55.714;37.436;2023-02-21T10:50:01;22.13;;;10.35;;
65162;SDS011;51751;55.714;37.436;2023-02-21T10:52:35;18.90;;;9.95;;
65162;SDS011;51751;55.714;37.436;2023-02-21T10:55:04;21.38;;;10.68;;
65162;SDS011;51751;55.714;37.436;2023-02-21T10:57:37;18.92;;;9.93;;
65162;SDS011;51751;55.714;37.436;2023-02-21T11:00:06;16.58;;;8.68;;
65162;SDS011;51751;55.714;37.436;2023-02-21T11:02:39;17.25;;;8.63;;
65162;SDS011;51751;55.714;37.436;2023-02-21T11:05:09;17.92;;;8.02;;
65162;SDS011;51751;55.714;37.436;2023-02-21T11:08:05;17.92;;;9.73;;
65162;SDS011;51751;55.714;37.436;2023-02-21T11:10:37;20.30;;;10.20;;
65162;SDS011;51751;55.714;37.436;2023-02-21T11:13:13;18.70;;;9.98;;
65162;SDS011;51751;55.714;37.436;2023-02-21T11:15:45;23.30;;;11.15;;
65162;SDS011;51751;55.714;37.436;2023-02-21T11:18:18;19.13;;;9.48;;
65162;SDS011;51751;55.714;37.436;2023-02-21T11:20:53;19.40;;;10.00;;
65162;SDS011;51751;55.714;37.436;2023-02-21T11:23:26;21.70;;;10.13;;
65162;SDS011;51751;55.714;37.436;2023-02-21T11:26:15;18.02;;;9.25;;
65162;SDS011;51751;55.714;37.436;2023-02-21T11:28:44;20.58;;;8.98;;
65162;SDS011;51751;55.714;37.436;2023-02-21T11:33:57;20.42;;;9.80;;
65162;SDS011;51751;55.714;37.436;2023-02-21T11:36:29;19.00;;;9.57;;
65162;SDS011;51751;55.714;37.436;2023-02-21T11:39:03;19.17;;;9.45;;
65162;SDS011;51751;55.714;37.436;2023-02-21T11:46:55;16.98;;;8.93;;
65162;SDS011;51751;55.714;37.436;2023-02-21T11:49:25;17.73;;;9.45;;
65162;SDS011;51751;55.714;37.436;2023-02-21T11:52:08;20.00;;;9.52;;
65162;SDS011;51751;55.714;37.436;2023-02-21T11:54:35;18.05;;;9.55;;
65162;SDS011;51751;55.714;37.436;2023-02-21T12:05:44;17.42;;;9.43;;
65162;SDS011;51751;55.714;37.436;2023-02-21T12:08:26;21.63;;;9.85;;
65162;SDS011;51751;55.714;37.436;2023-02-21T12:13:59;17.90;;;9.20;;
65162;SDS011;51751;55.714;37.436;2023-02-21T12:16:41;19.92;;;9.02;;
65162;SDS011;51751;55.714;37.436;2023-02-21T12:27:14;17.10;;;9.70;;
65162;SDS011;51751;55.714;37.436;2023-02-21T12:30:36;17.00;;;9.52;;
65162;SDS011;51751;55.714;37.436;2023-02-21T12:36:25;18.17;;;9.30;;
65162;SDS011;51751;55.714;37.436;2023-02-21T12:39:36;14.90;;;8.93;;
65162;SDS011;51751;55.714;37.436;2023-02-21T12:45:03;17.40;;;9.50;;
65162;SDS011;51751;55.714;37.436;2023-02-21T12:47:36;19.50;;;9.40;;
65162;SDS011;51751;55.714;37.436;2023-02-21T12:50:20;18.98;;;9.45;;
65162;SDS011;51751;55.714;37.436;2023-02-21T12:52:52;19.92;;;9.23;;
65162;SDS011;51751;55.714;37.436;2023-02-21T12:55:45;15.80;;;9.05;;
65162;SDS011;51751;55.714;37.436;2023-02-21T13:07:47;17.80;;;8.88;;
65162;SDS011;51751;55.714;37.436;2023-02-21T13:10:28;16.15;;;9.00;;
65162;SDS011;51751;55.714;37.436;2023-02-21T13:15:40;15.50;;;8.68;;
65162;SDS011;51751;55.714;37.436;2023-02-21T13:18:14;15.63;;;8.77;;
65162;SDS011;51751;55.714;37.436;2023-02-21T13:23:45;14.00;;;8.43;;
65162;SDS011;51751;55.714;37.436;2023-02-21T13:29:39;14.52;;;8.20;;
65162;SDS011;51751;55.714;37.436;2023-02-21T13:34:55;17.27;;;8.70;;
65162;SDS011;51751;55.714;37.436;2023-02-21T13:37:28;17.70;;;9.00;;
65162;SDS011;51751;55.714;37.436;2023-02-21T13:43:22;19.05;;;8.75;;
65162;SDS011;51751;55.714;37.436;2023-02-21T13:45:49;18.10;;;9.82;;
65162;SDS011;51751;55.714;37.436;2023-02-21T13:48:21;16.83;;;8.68;;
65162;SDS011;51751;55.714;37.436;2023-02-21T13:50:51;14.52;;;8.80;;
65162;SDS011;51751;55.714;37.436;2023-02-21T13:58:36;17.77;;;9.27;;
65162;SDS011;51751;55.714;37.436;2023-02-21T14:01:18;15.95;;;9.25;;
65162;SDS011;51751;55.714;37.436;2023-02-21T14:04:49;15.40;;;8.98;;
65162;SDS011;51751;55.714;37.436;2023-02-21T14:07:17;16.00;;;8.77;;
65162;SDS011;51751;55.714;37.436;2023-02-21T14:13:02;15.55;;;8.50;;
65162;SDS011;51751;55.714;37.436;2023-02-21T14:15:42;16.20;;;8.77;;
65162;SDS011;51751;55.714;37.436;2023-02-21T14:18:28;15.60;;;8.63;;
65162;SDS011;51751;55.714;37.436;2023-02-21T14:20:58;16.15;;;8.43;;
65162;SDS011;51751;55.714;37.436;2023-02-21T14:23:31;18.17;;;8.27;;
65162;SDS011;51751;55.714;37.436;2023-02-21T14:26:05;18.63;;;8.95;;
65162;SDS011;51751;55.714;37.436;2023-02-21T14:34:51;15.50;;;8.30;;
65162;SDS011;51751;55.714;37.436;2023-02-21T14:37:25;17.08;;;8.02;;
65162;SDS011;51751;55.714;37.436;2023-02-21T14:39:59;19.65;;;8.55;;
65162;SDS011;51751;55.714;37.436;2023-02-21T14:48:12;19.52;;;8.18;;
65162;SDS011;51751;55.714;37.436;2023-02-21T14:53:45;17.60;;;7.93;;
65162;SDS011;51751;55.714;37.436;2023-02-21T15:05:37;19.52;;;8.85;;
65162;SDS011;51751;55.714;37.436;2023-02-21T15:10:41;16.92;;;7.72;;
65162;SDS011;51751;55.714;37.436;2023-02-21T15:15:57;16.10;;;7.60;;
65162;SDS011;51751;55.714;37.436;2023-02-21T15:18:27;15.15;;;7.00;;
65162;SDS011;51751;55.714;37.436;2023-02-21T15:21:14;16.73;;;7.32;;
65162;SDS011;51751;55.714;37.436;2023-02-21T15:23:44;17.25;;;7.43;;
65162;SDS011;51751;55.714;37.436;2023-02-21T15:26:20;17.40;;;7.30;;
65162;SDS011;51751;55.714;37.436;2023-02-21T15:29:07;22.92;;;7.53;;
65162;SDS011;51751;55.714;37.436;2023-02-21T15:31:35;17.40;;;7.60;;
65162;SDS011;51751;55.714;37.436;2023-02-21T15:34:05;16.63;;;7.50;;
65162;SDS011;51751;55.714;37.436;2023-02-21T15:36:31;16.98;;;7.72;;
65162;SDS011;51751;55.714;37.436;2023-02-21T15:39:05;12.55;;;6.43;;
65162;SDS011;51751;55.714;37.436;2023-02-21T15:41:51;16.58;;;7.40;;
65162;SDS011;51751;55.714;37.436;2023-02-21T15:44:30;18.83;;;7.55;;
65162;SDS011;51751;55.714;37.436;2023-02-21T15:47:10;14.17;;;7.07;;
65162;SDS011;51751;55.714;37.436;2023-02-21T15:52:28;19.42;;;7.78;;
65162;SDS011;51751;55.714;37.436;2023-02-21T15:55:26;18.60;;;7.45;;
65162;SDS011;51751;55.714;37.436;2023-02-21T15:57:58;16.25;;;7.03;;
65162;SDS011;51751;55.714;37.436;2023-02-21T16:00:32;15.20;;;7.43;;
65162;SDS011;51751;55.714;37.436;2023-02-21T16:14:43;19.33;;;7.80;;
65162;SDS011;51751;55.714;37.436;2023-02-21T16:19:54;16.45;;;7.47;;
65162;SDS011;51751;55.714;37.436;2023-02-21T16:27:39;14.98;;;6.60;;
65162;SDS011;51751;55.714;37.436;2023-02-21T16:30:14;17.02;;;7.30;;
65162;SDS011;51751;55.714;37.436;2023-02-21T16:33:08;15.38;;;6.72;;
65162;SDS011;51751;55.714;37.436;2023-02-21T16:35:35;16.02;;;7.28;;
65162;SDS011;51751;55.714;37.436;2023-02-21T16:38:01;16.58;;;7.30;;
65162;SDS011;51751;55.714;37.436;2023-02-21T16:40:28;15.88;;;7.15;;
65162;SDS011;51751;55.714;37.436;2023-02-21T16:42:58;15.25;;;7.35;;
65162;SDS011;51751;55.714;37.436;2023-02-21T16:45:26;18.73;;;7.20;;
65162;SDS011;51751;55.714;37.436;2023-02-21T16:47:57;17.42;;;6.65;;
65162;SDS011;51751;55.714;37.436;2023-02-21T16:50:35;17.27;;;7.85;;
65162;SDS011;51751;55.714;37.436;2023-02-21T16:53:02;19.98;;;8.27;;
65162;SDS011;51751;55.714;37.436;2023-02-21T16:55:28;21.92;;;7.28;;
65162;SDS011;51751;55.714;37.436;2023-02-21T16:57:56;15.82;;;6.80;;
65162;SDS011;51751;55.714;37.436;2023-02-21T17:00:26;20.13;;;7.40;;
65162;SDS011;51751;55.714;37.436;2023-02-21T17:02:53;18.95;;;7.38;;
65162;SDS011;51751;55.714;37.436;2023-02-21T17:05:19;18.27;;;8.18;;
65162;SDS011;51751;55.714;37.436;2023-02-21T17:07:52;15.52;;;7.30;;
65162;SDS011;51751;55.714;37.436;2023-02-21T17:10:18;21.95;;;7.65;;
65162;SDS011;51751;55.714;37.436;2023-02-21T17:12:45;14.23;;;6.22;;
65162;SDS011;51751;55.714;37.436;2023-02-21T17:15:11;21.13;;;8.18;;
65162;SDS011;51751;55.714;37.436;2023-02-21T17:17:40;16.98;;;7.22;;
65162;SDS011;51751;55.714;37.436;2023-02-21T17:20:09;13.45;;;6.50;;
65162;SDS011;51751;55.714;37.436;2023-02-21T17:22:59;18.33;;;7.38;;
65162;SDS011;51751;55.714;37.436;2023-02-21T17:25:26;16.10;;;7.88;;
65162;SDS011;51751;55.714;37.436;2023-02-21T17:27:53;15.70;;;7.38;;
65162;SDS011;51751;55.714;37.436;2023-02-21T17:30:20;18.70;;;7.43;;
65162;SDS011;51751;55.714;37.436;2023-02-21T17:32:47;18.98;;;8.05;;
65162;SDS011;51751;55.714;37.436;2023-02-21T17:35:15;17.10;;;7.72;;
65162;SDS011;51751;55.714;37.436;2023-02-21T17:37:43;18.95;;;7.75;;
65162;SDS011;51751;55.714;37.436;2023-02-21T17:40:12;21.15;;;7.63;;
65162;SDS011;51751;55.714;37.436;2023-02-21T17:42:38;18.90;;;7.75;;
65162;SDS011;51751;55.714;37.436;2023-02-21T17:45:05;16.70;;;7.75;;
65162;SDS011;51751;55.714;37.436;2023-02-21T17:47:35;15.93;;;6.65;;